createdAt,value
2022-12-05T00:00:39.445Z,17.85
2022-12-05T00:05:46.524Z,22.08
2022-12-05T00:10:50.351Z,22.70
2022-12-05T00:15:55.526Z,22.73
2022-12-05T00:20:59.303Z,19.65
2022-12-05T00:26:04.524Z,23.65
2022-12-05T00:31:12.240Z,21.17
2022-12-05T00:36:20.276Z,21.77
2022-12-05T00:41:26.398Z,19.50
2022-12-05T00:46:33.137Z,21.23
2022-12-05T00:51:38.821Z,20.73
2022-12-05T00:56:43.161Z,19.33
2022-12-05T01:01:50.293Z,21.85
2022-12-05T01:06:56.604Z,20.27
2022-12-05T01:12:00.628Z,21.42
2022-12-05T01:17:05.990Z,20.35
2022-12-05T01:22:09.954Z,20.98
2022-12-05T01:27:13.802Z,18.30
2022-12-05T01:32:19.358Z,26.08
2022-12-05T01:37:23.235Z,18.63
2022-12-05T01:42:27.207Z,19.83
2022-12-05T01:47:36.545Z,19.77
2022-12-05T01:52:40.926Z,21.10
2022-12-05T01:57:46.573Z,20.85
2022-12-05T02:07:59.512Z,19.52
2022-12-05T02:18:24.870Z,22.02
2022-12-05T02:24:09.455Z,23.38
2022-12-05T02:29:35.761Z,20.33
2022-12-05T02:34:50.233Z,18.48
2022-12-05T02:40:01.623Z,19.60
2022-12-05T02:45:10.087Z,17.50
2022-12-05T02:50:19.896Z,21.80
2022-12-05T02:55:26.034Z,19.83
2022-12-05T03:00:29.990Z,18.38
2022-12-05T03:05:42.402Z,17.88
2022-12-05T03:10:47.156Z,17.33
2022-12-05T03:15:57.259Z,16.63
2022-12-05T03:21:07.293Z,17.50
2022-12-05T03:26:20.756Z,20.98
2022-12-05T03:31:39.121Z,18.33
2022-12-05T03:36:50.143Z,18.50
2022-12-05T03:42:02.631Z,16.98
2022-12-05T03:47:13.734Z,19.00
2022-12-05T03:52:24.017Z,17.70
2022-12-05T03:57:32.920Z,20.55
2022-12-05T04:02:45.720Z,20.98
2022-12-05T04:07:59.650Z,18.27
2022-12-05T04:13:17.919Z,21.23
2022-12-05T04:18:24.153Z,20.52
2022-12-05T04:23:29.852Z,19.27
2022-12-05T04:28:38.096Z,16.98
2022-12-05T04:33:46.063Z,16.65
2022-12-05T04:38:55.416Z,18.58
2022-12-05T04:44:03.057Z,19.40
2022-12-05T04:49:09.775Z,19.08
2022-12-05T04:54:21.147Z,20.27
2022-12-05T04:59:25.000Z,18.98
2022-12-05T05:04:35.000Z,21.02
2022-12-05T05:09:41.351Z,18.77
2022-12-05T05:14:45.318Z,23.40
2022-12-05T05:19:49.168Z,22.45
2022-12-05T05:24:54.358Z,31.95
2022-12-05T05:29:58.164Z,32.30
2022-12-05T05:35:02.259Z,26.27
2022-12-05T05:40:11.227Z,27.58
2022-12-05T05:45:16.547Z,20.63
2022-12-05T05:50:22.042Z,22.50
2022-12-05T05:55:27.428Z,19.70
2022-12-05T06:00:31.206Z,22.02
2022-12-05T06:05:35.146Z,19.27
2022-12-05T06:10:41.005Z,21.77
2022-12-05T06:20:53.787Z,19.33
2022-12-05T06:25:59.040Z,18.67
2022-12-05T06:31:08.849Z,21.92
2022-12-05T06:36:15.386Z,18.70
2022-12-05T06:41:22.013Z,19.65
2022-12-05T06:46:26.773Z,18.45
2022-12-05T06:51:30.659Z,21.90
2022-12-05T06:56:35.899Z,20.85
2022-12-05T07:01:41.111Z,20.23
2022-12-05T07:06:50.472Z,23.63
2022-12-05T07:11:56.855Z,22.48
2022-12-05T07:17:00.913Z,21.40
2022-12-05T07:22:07.401Z,20.08
2022-12-05T07:27:15.577Z,24.85
2022-12-05T07:32:19.472Z,21.55
2022-12-05T07:37:23.930Z,23.50
2022-12-05T07:42:29.209Z,30.90
2022-12-05T07:47:33.144Z,29.13
2022-12-05T07:52:36.902Z,21.30
2022-12-05T07:57:42.139Z,23.98
2022-12-05T08:02:45.982Z,21.35
2022-12-05T08:07:49.841Z,20.75
2022-12-05T08:12:55.168Z,29.45
2022-12-05T08:17:58.977Z,22.83
2022-12-05T08:23:02.819Z,29.00
2022-12-05T08:28:08.250Z,28.50
2022-12-05T08:33:12.351Z,35.50
2022-12-05T08:38:16.108Z,25.55
2022-12-05T08:43:21.401Z,30.27
2022-12-05T08:48:29.418Z,36.47
2022-12-05T08:53:33.779Z,32.80
2022-12-05T08:58:39.968Z,39.53
2022-12-05T09:03:48.055Z,32.50
2022-12-05T09:08:55.396Z,46.50
2022-12-05T09:14:02.002Z,32.92
2022-12-05T09:19:06.377Z,36.40
2022-12-05T09:24:12.651Z,39.50
2022-12-05T09:29:18.772Z,32.58
2022-12-05T09:34:24.865Z,34.47
2022-12-05T09:39:29.263Z,36.88
2022-12-05T09:44:43.643Z,36.75
2022-12-05T09:49:52.531Z,35.85
2022-12-05T09:54:58.272Z,42.15
2022-12-05T10:05:16.548Z,35.58
2022-12-05T10:10:30.762Z,26.88
2022-12-05T10:15:45.529Z,35.53
2022-12-05T10:20:53.708Z,27.73
2022-12-05T10:26:00.646Z,42.60
2022-12-05T10:31:12.108Z,40.17
2022-12-05T10:36:17.205Z,35.30
2022-12-05T10:41:21.508Z,33.97
2022-12-05T10:46:26.811Z,33.72
2022-12-05T10:51:37.036Z,27.58
2022-12-05T10:56:46.013Z,32.88
2022-12-05T11:01:53.662Z,36.45
2022-12-05T11:07:00.986Z,37.92
2022-12-05T11:12:21.358Z,29.02
2022-12-05T11:17:32.314Z,13.82
2022-12-05T11:22:37.122Z,7.80
2022-12-05T11:27:41.799Z,9.73
2022-12-05T11:32:47.422Z,10.38
2022-12-05T11:37:55.131Z,11.50
2022-12-05T11:43:19.698Z,10.00
2022-12-05T11:48:41.763Z,11.63
2022-12-05T11:54:04.352Z,15.23
2022-12-05T11:59:41.852Z,8.20
2022-12-05T12:04:53.802Z,8.40
2022-12-05T12:10:10.253Z,7.38
2022-12-05T12:15:32.569Z,10.32
2022-12-05T12:20:59.424Z,9.30
2022-12-05T12:26:10.938Z,8.20
2022-12-05T12:31:53.454Z,8.18
2022-12-05T12:37:04.465Z,8.73
2022-12-05T12:42:19.235Z,7.55
2022-12-05T12:47:37.611Z,7.18
2022-12-05T12:52:59.208Z,9.63
2022-12-05T12:58:13.488Z,12.57
2022-12-05T13:03:21.506Z,9.27
2022-12-05T13:08:32.636Z,9.65
2022-12-05T13:13:41.540Z,13.02
2022-12-05T13:18:47.336Z,17.95
2022-12-05T13:29:02.119Z,10.60
2022-12-05T13:34:06.320Z,9.40
2022-12-05T13:39:41.617Z,9.52
2022-12-05T13:44:49.004Z,12.20
2022-12-05T13:49:56.225Z,12.15
2022-12-05T13:55:06.772Z,9.25
2022-12-05T14:00:26.438Z,9.50
2022-12-05T14:05:43.387Z,8.35
2022-12-05T14:11:11.015Z,8.13
2022-12-05T14:16:50.566Z,9.52
2022-12-05T14:22:00.794Z,12.48
2022-12-05T14:27:13.954Z,9.60
2022-12-05T14:32:25.760Z,9.77
2022-12-05T14:37:33.028Z,11.15
2022-12-05T14:42:43.193Z,7.68
2022-12-05T14:47:53.017Z,7.80
2022-12-05T14:53:19.760Z,9.55
2022-12-05T14:58:33.991Z,13.02
2022-12-05T15:03:42.599Z,9.05
2022-12-05T15:08:50.392Z,15.73
2022-12-05T15:13:59.391Z,42.72
2022-12-05T15:19:07.600Z,45.15
2022-12-05T15:24:15.174Z,42.85
2022-12-05T15:29:27.516Z,50.60
2022-12-05T15:34:36.820Z,50.35
2022-12-05T15:39:55.671Z,55.25
2022-12-05T15:45:20.117Z,44.58
2022-12-05T15:50:34.271Z,40.25
2022-12-05T15:55:42.654Z,44.45
2022-12-05T16:00:51.896Z,52.92
2022-12-05T16:05:59.298Z,62.53
2022-12-05T16:11:09.074Z,63.38
2022-12-05T16:16:19.116Z,55.28
2022-12-05T16:21:37.336Z,49.42
2022-12-05T16:26:42.532Z,42.13
2022-12-05T16:31:47.740Z,54.30
2022-12-05T16:36:53.988Z,58.22
2022-12-05T16:41:58.181Z,58.70
2022-12-05T16:47:03.540Z,55.60
2022-12-05T16:52:15.175Z,53.83
2022-12-05T16:57:19.244Z,46.10
2022-12-05T17:02:24.533Z,51.67
2022-12-05T17:07:33.764Z,57.70
2022-12-05T17:12:38.814Z,74.10
2022-12-05T17:17:44.729Z,67.72
2022-12-05T17:22:49.549Z,66.90
2022-12-05T17:27:53.654Z,57.13
2022-12-05T17:32:59.031Z,55.78
2022-12-05T17:38:04.409Z,56.33
2022-12-05T17:43:08.271Z,55.28
2022-12-05T17:48:15.776Z,61.88
2022-12-05T17:53:21.966Z,53.63
2022-12-05T17:58:25.804Z,53.22
2022-12-05T18:03:31.284Z,60.67
2022-12-05T18:08:41.599Z,52.08
2022-12-05T18:13:45.560Z,53.88
2022-12-05T18:18:51.335Z,54.35
2022-12-05T18:23:55.186Z,43.90
2022-12-05T18:28:59.471Z,49.15
2022-12-05T18:34:04.751Z,50.63
2022-12-05T18:39:12.581Z,54.17
2022-12-05T18:44:16.453Z,50.28
2022-12-05T18:49:21.749Z,50.33
2022-12-05T18:54:30.552Z,47.35
2022-12-05T18:59:35.155Z,48.45
2022-12-05T19:04:40.572Z,47.95
2022-12-05T19:09:45.629Z,47.80
2022-12-05T19:14:49.518Z,50.33
2022-12-05T19:19:56.981Z,41.95
2022-12-05T19:25:03.447Z,46.78
2022-12-05T19:30:10.292Z,45.83
2022-12-05T19:35:16.268Z,43.95
2022-12-05T19:40:20.271Z,43.78
2022-12-05T19:45:25.992Z,42.13
2022-12-05T19:55:35.384Z,43.28
2022-12-05T20:00:39.258Z,64.88
2022-12-05T20:05:44.743Z,49.90
2022-12-05T20:10:50.017Z,52.95
2022-12-05T20:15:58.068Z,49.63
2022-12-05T20:21:07.105Z,51.75
2022-12-05T20:26:13.657Z,51.67
2022-12-05T20:31:19.920Z,53.92
2022-12-05T20:36:27.161Z,51.03
2022-12-05T20:41:31.266Z,56.20
2022-12-05T20:46:37.019Z,51.42
2022-12-05T20:51:57.670Z,44.28
2022-12-05T20:57:03.231Z,48.65
2022-12-05T21:07:13.510Z,50.58
2022-12-05T21:12:17.449Z,44.85
2022-12-05T21:17:22.981Z,41.08
2022-12-05T21:22:28.378Z,43.80
2022-12-05T21:27:32.287Z,42.78
2022-12-05T21:32:36.471Z,42.42
2022-12-05T21:37:42.019Z,38.92
2022-12-05T21:42:46.264Z,49.10
2022-12-05T21:47:51.302Z,47.42
2022-12-05T21:52:57.297Z,50.20
2022-12-05T22:03:22.464Z,45.88
2022-12-05T22:08:32.617Z,44.25
2022-12-05T22:13:37.118Z,43.88
2022-12-05T22:18:41.333Z,46.20
2022-12-05T22:23:47.520Z,52.00
2022-12-05T22:28:52.224Z,51.22
2022-12-05T22:33:56.096Z,47.58
2022-12-05T22:39:01.370Z,50.38
2022-12-05T22:44:05.702Z,55.53
2022-12-05T22:49:11.722Z,39.97
2022-12-05T22:54:17.331Z,45.38
2022-12-05T22:59:22.725Z,47.70
2022-12-05T23:04:26.816Z,51.30
2022-12-05T23:09:50.911Z,47.20
2022-12-05T23:19:59.565Z,32.22
2022-12-05T23:25:05.241Z,40.00
2022-12-05T23:30:10.330Z,35.63
2022-12-05T23:35:14.013Z,38.13
2022-12-05T23:40:19.512Z,41.85
2022-12-05T23:45:23.244Z,36.75
2022-12-05T23:50:26.937Z,39.63
2022-12-05T23:55:35.746Z,42.17
